Time;durP1;ratioP1;P1;durP2;ratioP2;P2;SDS_P1;SDS_P2;PMS_P1;PMS_P2;Temp;Humidity;BMP_temperature;BMP_pressure;BME280_temperature;BME280_humidity;BME280_pressure;Samples;Min_cycle;Max_cycle;Signal;HPM_P1;HPM_P2
2022/01/31 00:01:00;;;;;;;10.55;4.20;;;21.00;53.60;;;;;;5055448;28;20063;-72
2022/01/31 00:03:26;;;;;;;10.77;3.97;;;21.00;53.60;;;;;;5037829;28;20153;-72
2022/01/31 00:05:52;;;;;;;10.70;3.70;;;21.10;53.60;;;;;;5055469;28;20021;-72
2022/01/31 00:08:23;;;;;;;10.38;3.40;;;21.00;53.60;;;;;;5055880;28;20025;-72
2022/01/31 00:10:49;;;;;;;10.15;4.22;;;21.10;53.70;;;;;;5055180;28;20482;-72
2022/01/31 00:13:26;;;;;;;8.40;3.75;;;21.10;53.50;;;;;;5055556;28;20312;-72
2022/01/31 00:16:03;;;;;;;10.05;3.90;;;21.00;53.60;;;;;;5055363;28;20050;-72
2022/01/31 00:18:32;;;;;;;11.18;3.83;;;21.00;53.60;;;;;;5055351;28;20521;-71
2022/01/31 00:20:58;;;;;;;9.30;3.70;;;21.10;53.60;;;;;;5055014;28;20117;-72
2022/01/31 00:23:23;;;;;;;8.77;3.80;;;21.00;53.60;;;;;;5055328;28;20025;-72
2022/01/31 00:25:49;;;;;;;12.98;4.15;;;21.00;53.50;;;;;;5037299;28;20493;-72
2022/01/31 00:28:15;;;;;;;12.10;3.90;;;21.00;53.60;;;;;;5037241;28;20021;-72
2022/01/31 00:30:41;;;;;;;10.15;4.18;;;21.00;53.60;;;;;;5037448;28;20082;-72
2022/01/31 00:33:07;;;;;;;7.55;3.60;;;21.00;53.60;;;;;;5037834;28;20025;-72
2022/01/31 00:35:36;;;;;;;9.77;3.63;;;21.00;53.60;;;;;;5055136;28;20139;-72
2022/01/31 00:38:03;;;;;;;11.73;3.88;;;21.00;53.60;;;;;;5036939;28;20112;-72
2022/01/31 00:40:28;;;;;;;10.52;3.72;;;21.00;53.60;;;;;;5037025;28;20033;-72
2022/01/31 00:42:54;;;;;;;10.43;3.28;;;21.00;53.60;;;;;;5054789;28;20078;-72
2022/01/31 00:45:26;;;;;;;10.05;3.80;;;21.00;53.60;;;;;;5054980;28;20397;-72
2022/01/31 00:48:16;;;;;;;10.25;3.75;;;21.00;53.60;;;;;;5036993;28;20552;-72
2022/01/31 00:50:44;;;;;;;8.18;3.63;;;21.00;53.60;;;;;;5054132;28;20052;-72
2022/01/31 00:53:10;;;;;;;7.93;3.30;;;21.00;53.50;;;;;;5054677;28;20070;-72
2022/01/31 00:55:36;;;;;;;8.45;3.72;;;21.00;53.60;;;;;;5036908;28;20545;-72
2022/01/31 00:58:01;;;;;;;9.77;3.45;;;21.00;53.50;;;;;;5054620;28;20029;-72
2022/01/31 01:00:27;;;;;;;9.25;3.42;;;21.00;53.60;;;;;;5036475;28;20032;-72
2022/01/31 01:02:53;;;;;;;10.25;3.80;;;21.00;53.50;;;;;;5020076;28;20489;-72
2022/01/31 01:05:21;;;;;;;9.65;3.47;;;21.00;53.50;;;;;;5036369;28;20029;-72
2022/01/31 01:07:46;;;;;;;8.32;3.25;;;21.00;53.50;;;;;;5036352;28;20398;-72
2022/01/31 01:10:17;;;;;;;9.00;3.70;;;21.10;53.50;;;;;;5036301;28;20028;-72
2022/01/31 01:12:44;;;;;;;8.38;3.42;;;21.00;53.30;;;;;;5036555;28;20413;-72
2022/01/31 01:15:10;;;;;;;7.90;3.13;;;21.00;53.50;;;;;;5036494;28;20056;-72
2022/01/31 01:17:37;;;;;;;8.25;3.67;;;21.00;53.40;;;;;;5036360;28;20029;-72
2022/01/31 01:20:04;;;;;;;8.30;3.05;;;21.00;53.30;;;;;;5053871;28;20040;-72
2022/01/31 01:22:31;;;;;;;10.98;3.80;;;21.00;53.30;;;;;;5036248;28;20036;-72
2022/01/31 01:24:57;;;;;;;8.48;3.47;;;21.10;53.40;;;;;;5036256;28;20033;-72
2022/01/31 01:27:23;;;;;;;9.48;3.80;;;21.10;53.40;;;;;;5019864;28;20021;-72
2022/01/31 01:29:51;;;;;;;9.18;3.42;;;21.10;53.40;;;;;;5036011;28;20098;-72
2022/01/31 01:32:21;;;;;;;7.78;3.28;;;21.00;53.40;;;;;;5036309;28;20035;-72
2022/01/31 01:34:46;;;;;;;8.23;3.30;;;21.00;53.40;;;;;;5053853;28;20025;-73
2022/01/31 01:37:12;;;;;;;9.20;3.20;;;21.00;53.40;;;;;;5019415;28;20033;-72
2022/01/31 01:39:38;;;;;;;10.38;3.42;;;21.00;53.50;;;;;;5035738;28;20048;-72
2022/01/31 01:42:04;;;;;;;8.98;3.40;;;21.00;53.50;;;;;;5035912;28;20032;-72
2022/01/31 01:44:45;;;;;;;8.98;3.83;;;21.00;53.50;;;;;;5019451;28;20090;-72
2022/01/31 01:47:17;;;;;;;8.90;3.42;;;21.00;53.40;;;;;;5035791;28;20025;-72
2022/01/31 01:49:44;;;;;;;9.23;3.45;;;21.00;53.50;;;;;;5019364;28;20492;-72
2022/01/31 01:52:11;;;;;;;8.15;3.20;;;21.00;53.40;;;;;;5036004;28;20112;-72
2022/01/31 01:54:37;;;;;;;10.82;3.97;;;21.00;53.50;;;;;;5035907;28;20118;-72
2022/01/31 01:57:04;;;;;;;10.07;3.45;;;21.00;53.40;;;;;;5035854;28;20060;-72
2022/01/31 01:59:35;;;;;;;6.85;3.10;;;21.00;53.50;;;;;;5026158;23;20054;-75
2022/01/31 02:02:23;;;;;;;7.45;3.38;;;21.00;53.40;;;;;;4987546;28;20076;-75
2022/01/31 02:04:49;;;;;;;7.38;3.08;;;21.00;53.30;;;;;;4996233;28;20026;-75
2022/01/31 02:07:37;;;;;;;9.18;3.33;;;21.00;53.40;;;;;;4996316;28;20319;-75
2022/01/31 02:10:06;;;;;;;8.93;3.60;;;21.00;53.50;;;;;;4995200;28;20025;-75
2022/01/31 02:12:42;;;;;;;9.90;3.05;;;21.00;53.40;;;;;;4996184;28;20034;-75
2022/01/31 02:15:14;;;;;;;10.52;3.30;;;21.00;54.00;;;;;;4996271;28;20076;-75
2022/01/31 02:17:58;;;;;;;9.70;3.50;;;21.00;53.40;;;;;;5012551;28;20025;-75
2022/01/31 02:20:24;;;;;;;9.68;3.67;;;21.00;53.30;;;;;;4995610;28;20026;-75
2022/01/31 02:22:51;;;;;;;7.80;3.17;;;21.00;53.20;;;;;;4995746;28;20033;-75
2022/01/31 02:25:24;;;;;;;9.30;3.30;;;21.00;53.20;;;;;;4995912;28;20164;-76
2022/01/31 02:28:10;;;;;;;10.35;3.40;;;21.00;53.20;;;;;;5012859;28;20037;-75
2022/01/31 02:30:36;;;;;;;7.30;2.92;;;21.00;53.30;;;;;;4979363;28;20084;-75
2022/01/31 02:33:02;;;;;;;10.13;3.75;;;21.00;53.10;;;;;;5013205;28;20061;-75
2022/01/31 02:35:28;;;;;;;9.35;3.22;;;21.00;53.30;;;;;;4995766;28;20552;-75
2022/01/31 02:37:53;;;;;;;8.43;3.40;;;21.00;53.30;;;;;;4995257;28;20065;-75
2022/01/31 02:40:24;;;;;;;;;;;21.00;53.10;;;;;;4995569;28;20034;-75
2022/01/31 02:42:54;;;;;;;6.60;2.95;;;21.00;53.30;;;;;;4995417;28;20362;-75
2022/01/31 02:45:22;;;;;;;7.22;3.08;;;21.00;53.20;;;;;;4995799;28;20034;-75
2022/01/31 02:47:54;;;;;;;8.52;3.30;;;21.00;53.20;;;;;;4995491;28;20030;-77
2022/01/31 02:50:20;;;;;;;6.13;2.97;;;21.00;53.20;;;;;;4995054;28;20021;-75
2022/01/31 02:52:57;;;;;;;6.78;2.75;;;21.00;53.30;;;;;;4995430;28;20069;-75
2022/01/31 02:55:23;;;;;;;7.97;2.65;;;21.00;53.20;;;;;;4995350;28;20083;-75
2022/01/31 02:57:50;;;;;;;7.88;3.20;;;21.00;53.20;;;;;;4979292;28;20034;-75
2022/01/31 03:00:16;;;;;;;7.22;3.10;;;21.00;53.20;;;;;;4994794;28;20030;-75
2022/01/31 03:03:05;;;;;;;7.45;2.90;;;21.00;53.30;;;;;;4995107;28;20076;-75
2022/01/31 03:05:32;;;;;;;7.05;2.60;;;21.00;53.20;;;;;;4994572;28;20026;-75
2022/01/31 03:07:58;;;;;;;9.52;3.40;;;21.00;53.20;;;;;;4994878;28;20390;-75
2022/01/31 03:10:24;;;;;;;6.88;2.95;;;21.00;53.30;;;;;;5012321;28;20037;-75
2022/01/31 03:12:50;;;;;;;10.30;3.45;;;21.00;53.20;;;;;;4994963;28;20029;-75
2022/01/31 03:15:16;;;;;;;8.07;3.17;;;21.00;53.30;;;;;;4979169;28;20033;-75
2022/01/31 03:18:04;;;;;;;8.35;3.33;;;21.00;53.10;;;;;;4962643;28;20112;-75
2022/01/31 03:20:30;;;;;;;7.82;2.80;;;21.00;53.30;;;;;;4994867;28;20104;-75
2022/01/31 03:22:56;;;;;;;8.45;3.10;;;21.00;53.10;;;;;;4994886;28;20574;-75
2022/01/31 03:25:22;;;;;;;9.82;3.00;;;21.00;53.20;;;;;;4994755;28;20026;-75
2022/01/31 03:27:49;;;;;;;8.25;3.15;;;21.00;53.20;;;;;;4994903;28;20072;-75
2022/01/31 03:30:18;;;;;;;9.20;3.33;;;21.00;53.20;;;;;;4994203;28;20021;-75
2022/01/31 03:32:44;;;;;;;7.72;2.90;;;21.00;53.20;;;;;;4978611;28;20033;-75
2022/01/31 03:35:10;;;;;;;7.32;2.70;;;21.00;53.00;;;;;;4994792;28;20493;-75
2022/01/31 03:37:37;;;;;;;8.55;2.97;;;21.00;53.10;;;;;;4994781;28;20040;-75
2022/01/31 03:40:05;;;;;;;9.35;3.55;;;21.00;53.00;;;;;;4994511;28;20026;-75
2022/01/31 03:43:14;;;;;;;8.90;3.10;;;21.00;53.00;;;;;;4994650;28;20030;-75
2022/01/31 03:45:58;;;;;;;9.45;3.05;;;21.00;52.90;;;;;;4995190;28;20465;-75
2022/01/31 03:48:27;;;;;;;8.70;3.00;;;21.00;53.10;;;;;;4994416;28;20057;-75
2022/01/31 03:50:56;;;;;;;8.80;3.15;;;21.00;52.90;;;;;;4994853;28;20095;-76
2022/01/31 03:53:25;;;;;;;6.28;2.75;;;21.00;52.90;;;;;;4994631;28;20034;-76
2022/01/31 03:55:51;;;;;;;7.93;2.70;;;21.00;53.00;;;;;;4994670;28;20036;-75
2022/01/31 03:58:17;;;;;;;7.85;2.95;;;21.00;53.10;;;;;;4994405;28;20161;-75
2022/01/31 04:01:03;;;;;;;6.90;2.83;;;21.00;53.10;;;;;;5011114;28;20422;-76
2022/01/31 04:03:29;;;;;;;8.38;2.97;;;21.00;53.10;;;;;;5011913;28;20029;-75
2022/01/31 04:05:54;;;;;;;8.32;2.97;;;21.00;53.00;;;;;;5011905;28;20022;-75
2022/01/31 04:08:20;;;;;;;6.13;2.60;;;21.00;53.00;;;;;;5011920;28;20082;-75
2022/01/31 04:10:46;;;;;;;9.88;3.25;;;21.00;53.10;;;;;;5010347;28;20471;-76
2022/01/31 04:13:16;;;;;;;7.88;3.05;;;21.00;53.00;;;;;;5011816;28;20041;-75
2022/01/31 04:15:43;;;;;;;8.80;3.30;;;21.00;53.10;;;;;;5012285;28;20478;-75
2022/01/31 04:18:09;;;;;;;6.47;2.97;;;21.00;53.10;;;;;;5012008;28;20121;-76
2022/01/31 04:20:35;;;;;;;9.27;3.10;;;21.00;53.00;;;;;;4994217;28;20109;-76
2022/01/31 04:23:08;;;;;;;6.70;2.65;;;21.00;53.00;;;;;;5010778;28;20037;-76
2022/01/31 04:25:53;;;;;;;6.60;2.78;;;21.00;53.10;;;;;;5011890;28;20038;-76
2022/01/31 04:29:06;;;;;;;10.88;3.45;;;20.90;53.00;;;;;;5011859;28;20030;-75
2022/01/31 04:31:34;;;;;;;6.28;2.60;;;21.00;53.10;;;;;;5000723;28;20038;-75
2022/01/31 04:34:00;;;;;;;8.48;3.17;;;21.00;53.00;;;;;;5011661;28;20033;-75
2022/01/31 04:36:25;;;;;;;7.18;2.85;;;21.00;53.00;;;;;;5011956;28;20021;-75
2022/01/31 04:38:51;;;;;;;8.65;3.08;;;21.00;53.10;;;;;;5010449;28;20505;-75
2022/01/31 04:41:17;;;;;;;7.75;2.95;;;21.00;53.10;;;;;;5012383;28;20033;-75
2022/01/31 04:43:45;;;;;;;7.95;3.05;;;21.00;53.10;;;;;;5015225;28;20494;-75
2022/01/31 04:46:12;;;;;;;8.85;3.08;;;20.90;53.00;;;;;;5015260;28;20022;-75
2022/01/31 04:48:38;;;;;;;7.15;2.70;;;21.00;53.00;;;;;;5015235;28;20029;-76
2022/01/31 04:51:03;;;;;;;6.07;2.67;;;21.00;53.00;;;;;;5014907;28;20026;-75
2022/01/31 04:53:30;;;;;;;10.07;3.33;;;21.00;52.90;;;;;;5015237;28;20061;-75
2022/01/31 04:55:56;;;;;;;7.20;2.70;;;21.00;53.00;;;;;;5015080;28;20371;-75
2022/01/31 04:58:22;;;;;;;6.57;3.05;;;21.00;53.00;;;;;;5014914;28;20041;-75
2022/01/31 05:00:49;;;;;;;7.90;2.90;;;21.00;53.00;;;;;;5014716;28;20112;-75
2022/01/31 05:03:18;;;;;;;8.13;2.83;;;21.00;52.80;;;;;;5014843;28;20083;-74
2022/01/31 05:05:45;;;;;;;6.45;2.58;;;21.00;52.80;;;;;;5015108;28;20479;-75
2022/01/31 05:08:11;;;;;;;8.77;3.08;;;21.10;52.90;;;;;;5014848;28;20022;-75
2022/01/31 05:10:43;;;;;;;7.10;2.55;;;21.00;52.70;;;;;;5014618;28;20025;-75
2022/01/31 05:13:09;;;;;;;7.40;2.63;;;21.00;52.70;;;;;;5014824;28;20032;-75
2022/01/31 05:15:35;;;;;;;8.82;3.13;;;21.10;52.80;;;;;;5014682;28;20034;-75
2022/01/31 05:18:01;;;;;;;7.90;3.10;;;21.00;52.80;;;;;;5014611;28;20084;-75
2022/01/31 05:20:26;;;;;;;8.20;2.90;;;21.00;52.80;;;;;;5014404;28;20089;-76
2022/01/31 05:22:52;;;;;;;9.30;3.05;;;21.00;52.80;;;;;;5014646;28;20395;-76
2022/01/31 05:25:18;;;;;;;9.23;3.10;;;21.00;52.70;;;;;;5014650;28;20088;-76
2022/01/31 05:27:43;;;;;;;7.75;2.85;;;21.00;52.70;;;;;;5014470;28;20481;-76
2022/01/31 05:30:10;;;;;;;6.00;2.83;;;21.00;52.80;;;;;;5014187;28;20092;-75
2022/01/31 05:32:35;;;;;;;8.43;2.95;;;21.00;52.70;;;;;;4997357;28;20474;-76
2022/01/31 05:35:04;;;;;;;8.13;2.78;;;21.10;52.80;;;;;;4996986;28;20113;-76
2022/01/31 05:37:30;;;;;;;5.65;2.38;;;21.00;52.70;;;;;;5014488;28;20109;-76
2022/01/31 05:39:56;;;;;;;9.00;2.85;;;21.00;52.70;;;;;;5014219;28;20109;-76
2022/01/31 05:42:22;;;;;;;9.75;3.22;;;21.10;52.70;;;;;;5014312;28;20049;-76
2022/01/31 05:44:47;;;;;;;8.60;2.97;;;21.10;52.70;;;;;;5014196;28;20022;-76
2022/01/31 05:47:16;;;;;;;8.90;3.33;;;21.10;52.80;;;;;;5014363;28;20450;-76
2022/01/31 05:49:42;;;;;;;7.28;2.92;;;21.00;52.60;;;;;;4996836;28;20026;-76
2022/01/31 05:52:09;;;;;;;9.68;2.97;;;21.00;52.60;;;;;;5013573;28;20117;-75
2022/01/31 05:54:38;;;;;;;7.75;2.72;;;21.10;52.60;;;;;;5015690;28;20499;-75
2022/01/31 05:57:04;;;;;;;8.67;3.07;;;21.00;52.70;;;;;;4997242;28;20109;-76
2022/01/31 05:59:30;;;;;;;6.97;3.03;;;21.10;52.60;;;;;;5003895;28;20167;-76
2022/01/31 06:01:58;;;;;;;10.20;3.20;;;21.00;52.60;;;;;;4997928;28;20105;-76
2022/01/31 06:04:24;;;;;;;11.18;3.28;;;21.00;52.60;;;;;;4994300;28;20026;-76
2022/01/31 06:06:50;;;;;;;6.55;2.80;;;21.00;52.60;;;;;;4994375;28;20038;-76
2022/01/31 06:09:16;;;;;;;7.50;2.78;;;21.10;52.70;;;;;;4994043;28;20022;-76
2022/01/31 06:11:42;;;;;;;9.20;3.40;;;21.10;52.60;;;;;;4994064;28;20097;-76
2022/01/31 06:14:09;;;;;;;7.35;3.08;;;21.10;52.40;;;;;;4994110;28;20038;-75
2022/01/31 06:16:35;;;;;;;8.73;3.30;;;21.10;52.50;;;;;;4994064;28;20033;-76
2022/01/31 06:19:01;;;;;;;6.88;3.00;;;21.10;52.50;;;;;;4994033;28;20026;-76
2022/01/31 06:21:27;;;;;;;6.88;2.90;;;21.10;52.40;;;;;;4993477;28;20049;-76
2022/01/31 06:23:53;;;;;;;9.07;3.30;;;21.10;52.50;;;;;;4994070;28;20054;-76
2022/01/31 06:26:20;;;;;;;8.23;3.22;;;21.10;52.60;;;;;;4976525;28;20022;-76
2022/01/31 06:28:55;;;;;;;8.27;3.17;;;21.10;52.50;;;;;;4992621;28;20057;-75
2022/01/31 06:31:29;;;;;;;7.50;3.10;;;21.10;52.60;;;;;;4976133;28;20041;-76
2022/01/31 06:33:59;;;;;;;9.10;3.25;;;21.10;52.60;;;;;;4993861;28;20022;-76
2022/01/31 06:36:24;;;;;;;8.27;3.20;;;21.00;52.60;;;;;;4993761;28;20495;-76
2022/01/31 06:38:51;;;;;;;10.77;3.40;;;21.00;52.50;;;;;;4976105;28;20037;-76
2022/01/31 06:41:18;;;;;;;7.82;3.15;;;21.00;52.70;;;;;;4993035;28;20065;-75
2022/01/31 06:43:45;;;;;;;9.30;3.28;;;21.10;52.60;;;;;;4993258;28;20117;-76
2022/01/31 06:46:12;;;;;;;7.43;3.00;;;21.10;52.70;;;;;;4993362;28;20022;-76
2022/01/31 06:48:37;;;;;;;8.38;2.95;;;21.00;52.50;;;;;;4993203;28;20027;-76
2022/01/31 06:51:03;;;;;;;10.45;3.45;;;21.10;52.60;;;;;;4992930;28;20114;-75
2022/01/31 06:53:29;;;;;;;9.38;3.55;;;21.00;52.50;;;;;;4993106;28;20045;-76
2022/01/31 06:55:56;;;;;;;7.90;3.08;;;21.00;52.50;;;;;;4975780;28;20037;-76
2022/01/31 06:58:23;;;;;;;11.90;3.65;;;21.10;52.50;;;;;;4993115;28;20035;-76
2022/01/31 07:00:49;;;;;;;7.15;3.20;;;21.10;52.40;;;;;;4992755;28;20561;-76
2022/01/31 07:03:16;;;;;;;8.43;3.63;;;21.00;52.40;;;;;;4992789;28;20435;-76
2022/01/31 07:05:42;;;;;;;7.53;2.90;;;21.10;52.50;;;;;;4992728;28;20027;-76
2022/01/31 07:08:08;;;;;;;9.30;3.40;;;21.00;52.40;;;;;;4992826;28;20538;-76
2022/01/31 07:10:34;;;;;;;8.38;3.42;;;21.00;52.70;;;;;;4992653;28;20088;-76
2022/01/31 07:13:03;;;;;;;9.00;3.47;;;21.10;52.50;;;;;;4991724;28;20125;-76
2022/01/31 07:15:28;;;;;;;8.30;3.25;;;21.00;52.50;;;;;;4975637;28;20122;-76
2022/01/31 07:17:54;;;;;;;9.85;3.42;;;21.00;52.50;;;;;;4992809;28;20046;-76
2022/01/31 07:20:34;;;;;;;6.88;3.42;;;21.10;52.50;;;;;;4975151;28;20034;-76
2022/01/31 07:23:03;;;;;;;;;;;21.10;52.60;;;;;;4975980;28;20030;-76
2022/01/31 07:25:35;;;;;;;10.55;3.20;;;21.00;52.30;;;;;;4992726;28;19936;-76
2022/01/31 07:28:07;;;;;;;7.93;3.28;;;21.10;52.50;;;;;;4992632;28;20062;-76
2022/01/31 07:30:33;;;;;;;9.90;3.40;;;21.10;52.50;;;;;;4992317;28;20502;-76
2022/01/31 07:32:58;;;;;;;9.40;3.45;;;21.10;52.50;;;;;;4991380;28;20027;-75
2022/01/31 07:35:24;;;;;;;11.13;3.47;;;21.10;52.30;;;;;;4992481;28;20085;-76
2022/01/31 07:37:50;;;;;;;7.95;3.33;;;21.10;52.50;;;;;;4975396;28;20031;-76
2022/01/31 07:40:16;;;;;;;8.98;3.30;;;21.10;52.40;;;;;;4991261;28;20404;-76
2022/01/31 07:42:42;;;;;;;7.70;3.28;;;21.10;52.50;;;;;;4992358;28;20117;-76
2022/01/31 07:45:08;;;;;;;7.97;3.60;;;21.10;52.50;;;;;;4992648;28;20539;-76
2022/01/31 07:47:34;;;;;;;9.15;3.47;;;21.10;52.50;;;;;;4992683;28;20395;-76
2022/01/31 07:49:59;;;;;;;7.70;3.33;;;21.10;52.60;;;;;;4991013;28;20037;-76
2022/01/31 07:52:25;;;;;;;9.07;3.38;;;21.00;52.60;;;;;;4992468;28;20030;-76
2022/01/31 07:54:51;;;;;;;9.50;3.70;;;21.00;52.50;;;;;;4992561;28;20062;-76
2022/01/31 07:57:18;;;;;;;8.32;3.35;;;21.10;52.50;;;;;;4992583;28;20081;-76
2022/01/31 07:59:44;;;;;;;8.07;3.50;;;21.10;52.40;;;;;;4992091;28;20113;-76
2022/01/31 08:02:10;;;;;;;9.32;3.38;;;21.10;52.30;;;;;;4992370;28;20463;-76
2022/01/31 08:04:35;;;;;;;11.80;3.78;;;21.10;52.50;;;;;;4992390;28;20026;-76
2022/01/31 08:07:01;;;;;;;9.52;3.90;;;21.00;52.40;;;;;;4992484;28;20622;-76
2022/01/31 08:09:27;;;;;;;9.60;3.20;;;21.10;52.30;;;;;;4991857;28;20027;-76
2022/01/31 08:11:52;;;;;;;8.65;3.15;;;21.10;52.20;;;;;;4974762;28;20034;-76
2022/01/31 08:14:19;;;;;;;9.10;3.38;;;21.10;52.30;;;;;;4974940;28;20045;-76
2022/01/31 08:16:45;;;;;;;9.43;4.05;;;21.10;52.20;;;;;;4976945;28;20062;-76
2022/01/31 08:19:11;;;;;;;9.80;3.75;;;21.00;52.20;;;;;;4978685;28;20070;-76
2022/01/31 08:21:37;;;;;;;8.07;3.40;;;21.10;52.20;;;;;;4978385;28;20031;-76
2022/01/31 08:24:04;;;;;;;7.32;3.25;;;21.10;52.40;;;;;;4996224;28;20026;-76
2022/01/31 08:26:31;;;;;;;8.32;3.67;;;21.10;52.30;;;;;;4995965;28;20025;-76
2022/01/31 08:29:00;;;;;;;11.40;3.55;;;21.10;52.30;;;;;;4996059;28;20027;-76
2022/01/31 08:31:38;;;;;;;8.73;3.38;;;21.10;52.20;;;;;;4995526;28;20033;-76
2022/01/31 08:34:18;;;;;;;10.10;3.67;;;21.10;52.20;;;;;;4996043;28;20113;-76
2022/01/31 08:36:45;;;;;;;9.43;3.58;;;21.10;52.20;;;;;;4994714;28;20108;-76
2022/01/31 08:39:15;;;;;;;9.30;3.95;;;21.10;52.10;;;;;;4995693;28;20022;-76
2022/01/31 08:41:42;;;;;;;11.15;4.28;;;21.10;52.20;;;;;;4995609;28;20023;-76
2022/01/31 08:44:10;;;;;;;9.00;3.75;;;21.10;52.10;;;;;;4995546;28;20038;-76
2022/01/31 08:46:40;;;;;;;8.75;3.53;;;21.10;52.20;;;;;;4995736;28;20398;-75
2022/01/31 08:49:10;;;;;;;8.48;3.50;;;21.10;52.10;;;;;;4995765;28;20022;-76
2022/01/31 08:51:37;;;;;;;8.05;3.72;;;21.10;52.10;;;;;;4995177;28;20203;-77
2022/01/31 08:54:06;;;;;;;8.13;3.30;;;21.10;52.20;;;;;;4995504;28;20372;-77
2022/01/31 08:56:35;;;;;;;8.10;3.28;;;21.10;52.10;;;;;;4995417;28;20054;-77
2022/01/31 08:59:03;;;;;;;11.77;4.05;;;21.10;52.10;;;;;;4995616;28;20034;-77
2022/01/31 09:01:29;;;;;;;7.63;3.40;;;21.10;52.10;;;;;;4977681;28;20027;-77
2022/01/31 09:04:01;;;;;;;8.32;3.47;;;21.10;52.20;;;;;;4995255;28;20038;-77
2022/01/31 09:06:29;;;;;;;9.73;3.47;;;21.10;52.20;;;;;;4995323;28;20026;-77
2022/01/31 09:08:55;;;;;;;10.15;3.60;;;21.10;52.20;;;;;;4995015;28;20125;-77
2022/01/31 09:11:21;;;;;;;10.93;3.70;;;21.10;52.10;;;;;;4977511;28;20034;-77
2022/01/31 09:13:47;;;;;;;9.95;4.03;;;21.10;52.10;;;;;;4961733;28;20034;-77
2022/01/31 09:16:13;;;;;;;10.65;3.67;;;21.10;52.00;;;;;;4995097;28;20031;-77
2022/01/31 09:18:39;;;;;;;9.02;3.88;;;21.10;52.30;;;;;;4993954;28;20084;-77
2022/01/31 09:21:04;;;;;;;8.25;3.65;;;21.10;52.10;;;;;;4995125;28;20027;-77
2022/01/31 09:23:30;;;;;;;8.82;3.65;;;21.10;52.10;;;;;;4977326;28;20041;-77
2022/01/31 09:25:58;;;;;;;8.18;3.55;;;21.10;52.00;;;;;;4977564;28;20034;-77
2022/01/31 09:28:24;;;;;;;9.95;4.43;;;21.10;52.00;;;;;;4989960;28;20141;-77
2022/01/31 09:30:55;;;;;;;12.52;3.83;;;21.10;52.00;;;;;;4958517;28;20022;-78
2022/01/31 09:33:20;;;;;;;12.82;4.95;;;21.00;52.00;;;;;;4957946;28;20026;-78
2022/01/31 09:35:46;;;;;;;13.25;4.47;;;21.00;51.30;;;;;;4974032;28;20404;-78
2022/01/31 09:38:14;;;;;;;10.93;4.50;;;21.00;51.90;;;;;;4957841;28;20038;-78
2022/01/31 09:40:41;;;;;;;11.15;4.63;;;21.00;51.90;;;;;;4975008;28;20407;-77
2022/01/31 09:45:53;;;;;;;14.00;4.32;;;21.00;51.90;;;;;;4957707;28;20025;-77
2022/01/31 09:48:38;;;;;;;9.77;3.90;;;21.10;52.20;;;;;;4975032;28;20027;-78
2022/01/31 09:51:10;;;;;;;10.82;3.83;;;21.00;52.00;;;;;;4957491;28;20027;-78
2022/01/31 09:53:43;;;;;;;9.48;4.05;;;21.10;52.00;;;;;;4974928;28;20081;-77
2022/01/31 09:56:12;;;;;;;9.70;3.80;;;21.10;52.00;;;;;;4957593;28;20479;-78
2022/01/31 09:58:40;;;;;;;11.32;3.95;;;21.10;52.00;;;;;;4974733;28;20053;-77
2022/01/31 10:01:09;;;;;;;10.00;4.10;;;21.10;52.00;;;;;;4957092;28;20538;-77
2022/01/31 10:04:16;;;;;;;10.63;4.27;;;21.10;52.10;;;;;;4973605;28;20184;-78
2022/01/31 10:06:44;;;;;;;10.60;4.03;;;21.10;51.80;;;;;;4962881;28;20384;-77
2022/01/31 10:09:17;;;;;;;9.82;4.10;;;21.10;52.50;;;;;;4974624;28;20027;-78
2022/01/31 10:11:56;;;;;;;10.73;4.10;;;21.10;52.20;;;;;;4957296;28;20062;-78
2022/01/31 10:17:27;;;;;;;14.10;4.07;;;21.10;52.00;;;;;;4974665;28;20026;-78
2022/01/31 10:19:55;;;;;;;9.60;4.05;;;21.10;51.80;;;;;;4974024;28;20045;-78
2022/01/31 10:22:26;;;;;;;10.55;4.15;;;21.10;51.80;;;;;;4974415;28;20031;-78
2022/01/31 10:24:53;;;;;;;8.82;4.15;;;21.10;52.00;;;;;;4974479;28;20029;-78
2022/01/31 10:27:24;;;;;;;11.55;4.07;;;21.10;51.90;;;;;;4974655;28;20556;-78
2022/01/31 10:29:52;;;;;;;13.10;4.40;;;21.10;52.10;;;;;;4974094;28;20480;-78
2022/01/31 10:32:27;;;;;;;14.23;4.15;;;21.10;51.90;;;;;;4974366;28;20443;-79
2022/01/31 10:34:56;;;;;;;10.55;4.40;;;21.10;51.90;;;;;;4974522;28;20035;-78
2022/01/31 10:37:24;;;;;;;11.83;4.50;;;21.10;51.90;;;;;;4974315;28;20054;-78
2022/01/31 10:53:50;;;;;;;10.43;3.97;;;21.00;52.10;;;;;;4973977;28;20054;-77
2022/01/31 10:56:17;;;;;;;9.52;4.20;;;21.10;52.10;;;;;;4974038;28;20385;-78
2022/01/31 10:58:55;;;;;;;7.50;3.58;;;21.10;52.10;;;;;;4974081;28;20069;-77
2022/01/31 11:01:21;;;;;;;9.40;3.90;;;21.10;52.20;;;;;;4973460;28;20023;-78
2022/01/31 11:03:47;;;;;;;8.70;3.90;;;21.10;52.20;;;;;;4973630;28;20515;-77
2022/01/31 11:06:13;;;;;;;9.80;3.58;;;21.10;52.20;;;;;;4973685;28;20034;-75
2022/01/31 11:08:39;;;;;;;10.73;4.05;;;21.10;52.10;;;;;;4973401;28;20027;-76
2022/01/31 11:11:06;;;;;;;10.05;3.95;;;21.10;52.90;;;;;;4973257;28;20027;-76
2022/01/31 11:13:34;;;;;;;11.88;4.53;;;21.10;52.20;;;;;;4973557;28;20050;-76
2022/01/31 11:16:00;;;;;;;10.55;3.95;;;21.10;52.20;;;;;;4973628;28;20027;-76
2022/01/31 11:18:31;;;;;;;10.32;4.20;;;21.10;52.20;;;;;;4973541;28;20084;-75
2022/01/31 11:21:08;;;;;;;9.45;4.15;;;21.10;52.20;;;;;;4972823;28;20039;-76
2022/01/31 11:23:40;;;;;;;8.57;3.67;;;21.10;52.20;;;;;;4973180;28;20043;-76
2022/01/31 11:26:11;;;;;;;7.70;4.00;;;21.10;52.20;;;;;;4955920;28;20117;-75
2022/01/31 11:28:40;;;;;;;11.07;4.00;;;21.10;52.10;;;;;;4972969;28;20128;-76
2022/01/31 11:31:06;;;;;;;10.82;4.10;;;21.10;52.10;;;;;;4972917;28;20085;-75
2022/01/31 11:33:34;;;;;;;21.23;6.60;;;21.10;52.10;;;;;;4973270;28;20523;-73
2022/01/31 11:36:00;;;;;;;26.02;7.60;;;21.10;51.20;;;;;;4973291;28;20037;-72
2022/01/31 11:38:28;;;;;;;25.50;7.70;;;20.20;39.00;;;;;;4973196;28;20030;-76
2022/01/31 11:41:00;;;;;;;24.63;7.95;;;19.30;37.00;;;;;;4971512;28;20034;-75
2022/01/31 11:43:26;;;;;;;17.17;6.32;;;19.40;39.20;;;;;;4973315;28;20427;-75
2022/01/31 11:45:52;;;;;;;22.10;7.07;;;19.60;39.20;;;;;;4973042;28;20049;-74
2022/01/31 11:48:22;;;;;;;26.77;6.63;;;19.70;39.50;;;;;;4971788;28;20018;-75
2022/01/31 11:50:59;;;;;;;20.70;6.28;;;19.90;40.50;;;;;;4972483;28;20030;-76
2022/01/31 11:53:31;;;;;;;19.92;6.50;;;20.20;41.70;;;;;;4972906;28;20038;-74
2022/01/31 11:56:02;;;;;;;20.85;7.03;;;20.40;42.60;;;;;;4986811;28;20498;-76
2022/01/31 11:58:34;;;;;;;23.17;6.88;;;20.60;43.90;;;;;;4988421;28;20030;-75
2022/01/31 12:01:01;;;;;;;21.25;7.13;;;20.70;44.30;;;;;;4992200;28;20037;-75
2022/01/31 12:03:27;;;;;;;26.85;6.90;;;20.80;44.90;;;;;;4992260;28;20034;-75
2022/01/31 12:05:53;;;;;;;19.55;6.68;;;20.80;45.60;;;;;;4958994;28;20391;-75
2022/01/31 12:08:22;;;;;;;20.83;6.90;;;20.90;45.70;;;;;;4992110;28;20117;-76
2022/01/31 12:10:56;;;;;;;18.52;6.60;;;20.90;45.90;;;;;;4974606;28;20018;-76
2022/01/31 12:13:39;;;;;;;19.65;6.40;;;20.90;46.70;;;;;;4958905;28;20046;-75
2022/01/31 12:16:23;;;;;;;18.15;5.93;;;20.90;46.70;;;;;;4975032;28;20042;-76
2022/01/31 12:18:58;;;;;;;20.35;6.20;;;20.90;47.80;;;;;;4992083;28;20077;-76
2022/01/31 12:24:40;;;;;;;18.20;5.57;;;21.00;47.90;;;;;;4987372;28;20113;-75
2022/01/31 12:27:10;;;;;;;19.83;5.97;;;21.00;47.60;;;;;;4991933;28;20495;-75
2022/01/31 12:29:58;;;;;;;19.58;6.20;;;21.00;47.70;;;;;;4991663;28;20050;-75
2022/01/31 12:32:25;;;;;;;18.02;6.35;;;21.00;47.80;;;;;;4992194;28;20372;-74
2022/01/31 12:34:59;;;;;;;18.42;5.95;;;21.00;47.80;;;;;;4974692;28;20034;-75
2022/01/31 12:37:39;;;;;;;16.33;5.72;;;21.00;48.00;;;;;;4992161;28;20391;-74
2022/01/31 12:40:29;;;;;;;17.50;5.85;;;21.00;48.00;;;;;;4991783;28;20030;-74
2022/01/31 12:45:37;;;;;;;16.73;5.97;;;21.00;48.40;;;;;;4974485;28;20487;-75
2022/01/31 12:48:10;;;;;;;16.73;5.75;;;21.00;48.50;;;;;;4974559;28;20026;-76
2022/01/31 12:50:37;;;;;;;14.45;5.05;;;21.00;48.90;;;;;;4991597;28;20438;-74
2022/01/31 12:53:39;;;;;;;16.35;5.60;;;21.00;48.50;;;;;;4991852;28;20121;-77
2022/01/31 12:56:09;;;;;;;15.93;5.10;;;21.00;48.70;;;;;;4991745;28;20061;-76
2022/01/31 12:58:46;;;;;;;16.40;5.38;;;21.00;48.20;;;;;;4991701;28;20036;-76
2022/01/31 13:01:24;;;;;;;17.85;5.30;;;21.00;48.60;;;;;;4991561;28;20442;-75
2022/01/31 13:04:05;;;;;;;24.48;5.68;;;21.00;49.30;;;;;;4995039;28;20080;-76
2022/01/31 13:06:56;;;;;;;22.08;5.20;;;21.10;49.00;;;;;;4995247;28;20470;-73
2022/01/31 13:09:34;;;;;;;20.05;6.18;;;21.00;48.80;;;;;;4994961;28;20027;-76
2022/01/31 13:12:04;;;;;;;21.02;6.55;;;21.00;48.00;;;;;;4995247;28;20058;-75
2022/01/31 13:14:45;;;;;;;29.35;7.22;;;21.00;47.90;;;;;;4977889;28;20052;-76
2022/01/31 13:17:20;;;;;;;26.67;7.78;;;21.00;48.50;;;;;;4995317;28;20494;-75
2022/01/31 13:19:49;;;;;;;25.42;6.28;;;21.10;48.40;;;;;;4994589;28;20479;-76